Flight Track Log - Related Links

Times and Time Zones

All times are in EDT time to prevent confusion due to time zone crossing. See the EJM19 flight status page for this flight to view local times or setup timezone preferences in your user account.

Time Position Orientation Groundspeed Altitude Reporting Facility
EDT Latitude Longitude Course Direction KTS MPH feet Rate Location/Type
Fri 04:15:14 PM 41.0333 -73.7167 209° Southwest 169 194 2,300  Level New York TRACON
Fri 04:16:09 PM 41.0500 -73.7667 294° West 187 215 4,500 3,235 Climbing New York TRACON
Fri 04:17:09 PM 41.0333 -73.8333 252° West 229 264 8,500 3,731 Climbing New York TRACON
Fri 04:18:08 PM 40.9667 -73.8500 191° South 259 298 11,900 1,765 Climbing New York TRACON
Fri 04:19:08 PM 40.8833 -73.9000 204° Southwest 328 377 12,000 50 Climbing New York TRACON
Fri 04:20:00 PM 36.7503 -76.6343 209° Southwest  Level Estimated
Fri 04:20:08 PM 40.8000 -73.9333 197° South 330 380 12,000  Level New York TRACON
Fri 04:21:48 PM 40.6703 -74.0489 214° Southwest 338 389 12,000  Level New York Center
Fri 04:22:50 PM 40.6083 -74.1033 214° Southwest 316 364 12,000 200 Level New York Center
Fri 04:23:48 PM 40.5094 -74.1394 196° South 322 371 12,400 1,311 Climbing New York Center
Fri 04:24:49 PM 40.4233 -74.1597 190° South 341 392 14,600 2,066 Climbing New York Center
Fri 04:25:50 PM 40.3122 -74.1869 191° South 364 419 16,600 1,680 Climbing New York Center
Fri 04:28:09 PM 40.0683 -74.2386 189° South 391 450 20,200 1,675 Climbing Washington Center
Fri 04:29:07 PM 39.9753 -74.3056 209° Southwest 384 442 22,100 2,824 Climbing Washington Center
Fri 04:30:08 PM 39.9053 -74.3906 223° Southwest 356 410 25,800 2,951 Climbing Washington Center
Fri 04:31:09 PM 39.8375 -74.4700 222° Southwest 351 404 28,100 1,983 Climbing Washington Center
Fri 04:32:06 PM 39.7694 -74.5550 224° Southwest 346 398 29,700 1,513 Climbing Washington Center
Fri 04:33:08 PM 39.6950 -74.6394 221° Southwest 346 398 31,100 1,328 Climbing Washington Center
Fri 04:34:08 PM 39.6208 -74.7322 224° Southwest 356 410 32,400 992 Climbing Washington Center
Fri 04:35:09 PM 39.5525 -74.8136 223° Southwest 369 425 33,100 756 Climbing Washington Center
Fri 04:36:07 PM 39.4742 -74.9086 223° Southwest 375 432 33,900 908 Climbing Washington Center
Fri 04:37:08 PM 39.3975 -74.9953 221° Southwest 375 432 34,900 1,082 Climbing Washington Center
Fri 04:38:09 PM 39.3289 -75.0819 224° Southwest 364 419 36,100 1,261 Climbing Washington Center
Fri 04:39:07 PM 39.2606 -75.1572 220° Southwest 344 396 37,400 1,210 Climbing Washington Center
Fri 04:40:08 PM 39.1961 -75.2300 221° Southwest 330 380 38,500 984 Climbing Washington Center
Fri 04:41:09 PM 39.1256 -75.2919 214° Southwest 317 365 39,400 744 Climbing Washington Center
Fri 04:42:09 PM 39.0422 -75.3350 202° Southwest 317 365 40,000 305 Climbing Washington Center
Fri 04:43:07 PM 38.9528 -75.3967 208° Southwest 338 389 40,000  Level Washington Center
Fri 04:44:08 PM 38.8589 -75.4583 207° Southwest 365 420 40,000  Level Washington Center
Fri 04:45:09 PM 38.7589 -75.5197 206° Southwest 386 444 40,000  Level Washington Center
Fri 04:46:07 PM 38.6547 -75.5836 206° Southwest 399 459 40,000  Level Washington Center
Fri 04:47:08 PM 38.5506 -75.6500 206° Southwest 414 476 40,000  Level Washington Center
Fri 04:48:08 PM 38.4442 -75.7189 207° Southwest 424 488 40,000  Level Washington Center
Fri 04:49:09 PM 38.3439 -75.7822 206° Southwest 424 488 40,000 700 Level Washington Center
Fri 04:50:08 PM 38.2375 -75.8428 204° Southwest 402 463 41,400 1,311 Climbing Washington Center
Fri 04:51:08 PM 38.1497 -75.8981 206° Southwest 377 434 42,600 793 Climbing Washington Center
Fri 04:52:09 PM 38.0706 -75.9478 206° Southwest 363 418 43,000 202 Climbing Washington Center
Fri 04:53:07 PM 37.9764 -76.0053 206° Southwest 363 418 43,000  Level Washington Center
Fri 04:54:08 PM 37.8803 -76.0653 206° Southwest 368 423 43,000  Level Washington Center
Fri 04:55:06 PM 37.7819 -76.1253 206° Southwest 379 436 43,000  Level Washington Center
Fri 04:56:07 PM 37.6794 -76.1900 207° Southwest 396 456 43,000  Level Washington Center
Fri 04:57:08 PM 37.5792 -76.2494 205° Southwest 408 470 43,000  Level Washington Center
Fri 04:58:09 PM 37.4722 -76.3142 206° Southwest 408 470 43,000  Level Washington Center
Fri 04:59:09 PM 37.3656 -76.3783 206° Southwest 419 482 43,000  Level Washington Center
Fri 05:00:07 PM 37.2567 -76.4450 206° Southwest 424 488 43,000  Level Washington Center
Fri 05:01:08 PM 37.1728 -76.4989 207° Southwest 429 494 43,000  Level Washington Center
Fri 05:02:09 PM 37.0428 -76.5756 205° Southwest 429 494 43,000  Level Washington Center
Fri 05:03:07 PM 36.9339 -76.6417 206° Southwest 429 494 43,000  Level Washington Center
Fri 05:04:07 PM 36.8269 -76.7050 205° Southwest 429 494 43,000  Level Washington Center
Fri 05:05:08 PM 36.7136 -76.7708 205° Southwest 429 494 43,000 99 Level Washington Center
Fri 05:06:08 PM 36.6064 -76.8364 206° Southwest 429 494 43,200 397 Climbing Washington Center
Fri 05:07:09 PM 36.4994 -76.9019 206° Southwest 429 494 43,800 655 Climbing Washington Center
Fri 05:08:07 PM 36.3922 -76.9672 206° Southwest 429 494 44,500 559 Climbing Washington Center
Fri 05:09:07 PM 36.2872 -77.0272 205° Southwest 424 488 44,900 248 Climbing Washington Center
Fri 05:10:08 PM 36.1842 -77.0872 205° Southwest 424 488 45,000 49 Climbing Washington Center
Fri 05:11:09 PM 36.0833 -77.1469 206° Southwest 419 482 45,000  Level Washington Center
Fri 05:12:07 PM 35.9783 -77.2064 205° Southwest 419 482 45,000  Level Washington Center
Fri 05:13:08 PM 35.8708 -77.2708 206° Southwest 419 482 45,000  Level Washington Center
Fri 05:14:08 PM 35.7511 -77.3400 205° Southwest 425 489 45,000  Level Washington Center
Fri 05:15:07 PM 35.6522 -77.3967 205° Southwest 430 495 45,000  Level Washington Center
Fri 05:16:07 PM 35.5428 -77.4581 205° Southwest 430 495 45,000  Level Washington Center
Fri 05:17:08 PM 35.4311 -77.5242 206° Southwest 435 501 45,000  Level Washington Center
Fri 05:18:09 PM 35.3275 -77.6008 211° Southwest 435 501 45,000  Level Washington Center
Fri 05:19:07 PM 35.2342 -77.6975 220° Southwest 440 506 45,000  Level Washington Center
Fri 05:20:08 PM 35.1406 -77.7942 220° Southwest 445 512 45,000  Level Washington Center
Fri 05:21:09 PM 35.0489 -77.8906 221° Southwest 445 512 45,000  Level Washington Center
Fri 05:22:09 PM 34.9533 -77.9867 220° Southwest 445 512 45,000  Level Washington Center
Fri 05:23:07 PM 34.8594 -78.0853 221° Southwest 445 512 45,000  Level Washington Center
Fri 05:24:08 PM 34.7675 -78.1861 222° Southwest 445 512 45,000  Level Washington Center
Fri 05:25:09 PM 34.6714 -78.2839 220° Southwest 445 512 45,000  Level Washington Center
Fri 05:28:52 PM 34.3036 -78.6547 220° Southwest 450 518 45,000  Level Jacksonville Center
Fri 05:29:52 PM 34.2067 -78.7547 220° Southwest 455 524 45,000  Level Jacksonville Center
Fri 05:30:52 PM 34.1075 -78.8497 218° Southwest 455 524 45,000  Level Jacksonville Center
Fri 05:31:52 PM 34.0106 -78.9469 220° Southwest 455 524 45,000  Level Jacksonville Center
Fri 05:32:52 PM 33.9133 -79.0439 220° Southwest 455 524 45,000  Level Jacksonville Center
Fri 05:33:52 PM 33.8053 -79.1236 212° Southwest 455 524 45,000  Level Jacksonville Center
Fri 05:34:52 PM 33.6947 -79.2006 210° Southwest 461 531 45,000  Level Jacksonville Center
Fri 05:35:52 PM 33.5983 -79.2569 206° Southwest 449 517 45,000  Level Jacksonville Center
Fri 05:36:52 PM 33.4856 -79.3314 209° Southwest 449 517 45,000  Level Jacksonville Center
Fri 05:37:52 PM 33.3769 -79.4031 209° Southwest 449 517 45,000  Level Jacksonville Center
Fri 05:38:52 PM 33.2664 -79.4744 208° Southwest 449 517 45,000  Level Jacksonville Center
Fri 05:39:52 PM 33.1536 -79.5481 209° Southwest 449 517 45,000 -600 Level Jacksonville Center
Fri 05:40:52 PM 33.0317 -79.5997 200° South 459 528 43,800 -1,550 Descending Jacksonville Center
Fri 05:41:52 PM 32.9028 -79.6217 188° South 459 528 41,900 -1,700 Descending Jacksonville Center
Fri 05:42:52 PM 32.7742 -79.6436 188° South 470 541 40,400 -950 Descending Jacksonville Center
Fri 05:43:52 PM 32.6264 -79.6639 187° South 476 548 40,000 -200 Descending Jacksonville Center
Fri 05:44:52 PM 32.4933 -79.6808 186° South 482 555 40,000  Level Jacksonville Center
Fri 05:45:52 PM 32.3600 -79.7003 187° South 482 555 40,000  Level Jacksonville Center
Fri 05:46:52 PM 32.2269 -79.7197 187° South 482 555 40,000  Level Jacksonville Center
Fri 05:47:52 PM 32.1031 -79.7756 201° Southwest 482 555 40,000  Level Jacksonville Center
Fri 05:48:52 PM 31.9814 -79.8383 204° Southwest 477 549 40,000 -350 Level Jacksonville Center
Fri 05:49:52 PM 31.8617 -79.8961 202° Southwest 477 549 39,300 -900 Descending Jacksonville Center
Fri 05:50:52 PM 31.7400 -79.9564 203° Southwest 477 549 38,200 -958 Descending Jacksonville Center
Fri 05:51:51 PM 31.6203 -80.0139 202° Southwest 472 543 37,400 -1,400 Descending Jacksonville Center
Fri 05:52:52 PM 31.4944 -80.0761 203° Southwest 477 549 35,400 -2,000 Descending Jacksonville Center
Fri 05:53:51 PM 31.3703 -80.1333 201° Southwest 477 549 33,400 -1,850 Descending Jacksonville Center
Fri 05:54:52 PM 31.2589 -80.1925 204° Southwest 482 555 31,700 -1,686 Descending Jacksonville Center
Fri 05:55:52 PM 31.1367 -80.2469 201° Southwest 477 549 30,000 -850 Descending Jacksonville Center
Fri 05:56:52 PM 31.0128 -80.3064 202° Southwest 477 549 30,000  Level Jacksonville Center
Fri 05:57:52 PM 30.8931 -80.3700 205° Southwest 482 555 30,000  Level Jacksonville Center
Fri 05:58:52 PM 30.7647 -80.4267 201° Southwest 482 555 30,000  Level Jacksonville Center
Fri 05:59:52 PM 30.6425 -80.4853 202° Southwest 482 555 30,000  Level Jacksonville Center
Fri 06:00:52 PM 30.5183 -80.5464 203° Southwest 482 555 30,000  Level Jacksonville Center
Fri 06:01:52 PM 30.3942 -80.6047 202° Southwest 482 555 30,000  Level Jacksonville Center
Fri 06:02:52 PM 30.2658 -80.6631 201° Southwest 488 562 30,000  Level Jacksonville Center
Fri 06:03:52 PM 30.1436 -80.7211 202° Southwest 488 562 30,000  Level Jacksonville Center
Fri 06:04:52 PM 30.0297 -80.7767 203° Southwest 469 540 30,000 -100 Level Jacksonville Center
Fri 06:05:52 PM 29.9117 -80.8319 202° Southwest 463 533 29,800 -1,300 Descending Jacksonville Center
Fri 06:06:52 PM 29.7914 -80.8894 203° Southwest 463 533 27,400 -2,450 Descending Jacksonville Center
Fri 06:07:52 PM 29.6733 -80.9444 202° Southwest 468 539 24,900 -2,400 Descending Jacksonville Center
Fri 06:08:52 PM 29.5636 -80.9944 202° Southwest 449 517 22,600 -2,350 Descending Jacksonville Center
Fri 06:09:52 PM 29.4453 -81.0492 202° Southwest 424 488 20,200 -2,250 Descending Jacksonville Center
Fri 06:10:52 PM 29.3394 -81.0964 201° Southwest 402 463 18,100 -2,150 Descending Jacksonville Center
Fri 06:11:52 PM 29.2353 -81.1125 188° South 390 449 15,900 -2,150 Descending Jacksonville Center
Fri 06:12:52 PM 29.1458 -81.1283 189° South 339 390 13,800 -2,300 Descending Jacksonville Center
Fri 06:13:52 PM 29.0644 -81.1322 182° South 299 344 11,300 -2,950 Descending Jacksonville Center
Fri 06:14:52 PM 28.9875 -81.1528 193° South 301 346 7,900 -2,700 Descending Jacksonville Center
Fri 06:15:52 PM 28.9489 -81.2292 240° Southwest 273 314 5,900 -1,150 Descending Jacksonville Center
Fri 06:16:52 PM 28.9144 -81.3033 242° Southwest 274 315 5,600 -800 Descending Jacksonville Center
Fri 06:17:52 PM 28.8756 -81.3797 240° Southwest 274 315 4,300 -1,134 Descending Jacksonville Center
Fri 06:18:59 PM 28.8167 -81.4500 226° Southwest 273 314 3,200 -614 Descending Orlando TRACON
Fri 06:19:59 PM 28.7500 -81.4833 204° Southwest 277 319 3,000 -99 Descending Orlando TRACON
Fri 06:21:00 PM 28.6833 -81.5000 192° South 278 320 3,000  Level Orlando TRACON
Fri 06:23:05 PM 28.5167 -81.5333 190° South 273 314 3,000 -290 Level Orlando TRACON
Fri 06:24:06 PM 28.4500 -81.5167 168° South 234 269 2,100 -496 Descending Orlando TRACON
Fri 06:25:06 PM 28.4000 -81.5000 164° South 166 191 2,000 -316 Descending Orlando TRACON
Fri 06:26:00 PM 28.3667 -81.4833 156° South 190 219 1,500 -600 Descending Orlando TRACON
Fri 06:27:06 PM 28.3167 -81.4667 164° South 124 143 800 -636 Descending Orlando TRACON
Fri 06:29:00 PM 28.2898 -81.4371 123° Southeast  Level Estimated
Fri 06:36:00 PM 28.2898 -81.4371 294° West  Level Estimated
Fri 06:37:00 PM 28.2898 -81.4371 294° West  Level Estimated
Fri 06:38:00 PM 28.2898 -81.4371 294° West  Level Estimated

Login

Don't have an account? Register now (free) for customized features, flight alerts, and more!